createdAt,value
2019-05-05T00:00:27.873Z,987.51
2019-05-05T00:01:27.788Z,987.51
2019-05-05T00:02:27.699Z,987.53
2019-05-05T00:03:27.662Z,987.51
2019-05-05T00:04:27.525Z,987.53
2019-05-05T00:05:27.443Z,987.54
2019-05-05T00:06:27.353Z,987.57
2019-05-05T00:07:27.266Z,987.59
2019-05-05T00:08:27.180Z,987.56
2019-05-05T00:09:27.091Z,987.61
2019-05-05T00:10:27.011Z,987.59
2019-05-05T00:11:26.917Z,987.54
2019-05-05T00:12:26.835Z,987.61
2019-05-05T00:13:26.744Z,987.61
2019-05-05T00:14:26.657Z,987.60
2019-05-05T00:15:26.570Z,987.62
2019-05-05T00:16:26.484Z,987.62
2019-05-05T00:17:26.395Z,987.61
2019-05-05T00:18:26.309Z,987.66
2019-05-05T00:19:32.581Z,987.62
2019-05-05T00:20:26.136Z,987.65
2019-05-05T00:21:26.049Z,987.67
2019-05-05T00:22:25.962Z,987.67
2019-05-05T00:23:25.875Z,987.71
2019-05-05T00:24:25.792Z,987.67
2019-05-05T00:25:25.700Z,987.71
2019-05-05T00:26:25.615Z,987.71
2019-05-05T00:27:25.542Z,987.67
2019-05-05T00:28:25.439Z,987.67
2019-05-05T00:29:25.499Z,987.69
2019-05-05T00:30:25.266Z,987.70
2019-05-05T00:31:25.181Z,987.73
2019-05-05T00:32:25.094Z,987.70
2019-05-05T00:33:25.085Z,987.67
2019-05-05T00:34:24.920Z,987.72
2019-05-05T00:35:25.292Z,987.74
2019-05-05T00:36:24.782Z,987.72
2019-05-05T00:37:25.634Z,987.75
2019-05-05T00:38:24.984Z,987.76
2019-05-05T00:39:25.487Z,987.73
2019-05-05T00:40:24.925Z,987.76
2019-05-05T00:41:25.374Z,987.76
2019-05-05T00:42:24.813Z,987.81
2019-05-05T00:43:25.221Z,987.79
2019-05-05T00:44:24.749Z,987.85
2019-05-05T00:45:25.295Z,987.84
2019-05-05T00:46:24.545Z,987.86
2019-05-05T00:47:25.075Z,987.87
2019-05-05T00:48:24.529Z,987.92
2019-05-05T00:49:25.029Z,987.94
2019-05-05T00:50:25.261Z,987.94
2019-05-05T00:51:24.480Z,988.00
2019-05-05T00:52:24.548Z,988.01
2019-05-05T00:53:25.060Z,988.08
2019-05-05T00:54:24.379Z,988.07
2019-05-05T00:55:24.418Z,988.07
2019-05-05T00:56:24.914Z,988.07
2019-05-05T00:57:24.312Z,988.10
2019-05-05T00:58:24.663Z,988.08
2019-05-05T00:59:22.741Z,988.05
2019-05-05T01:00:24.414Z,988.10
2019-05-05T01:01:22.566Z,988.08
2019-05-05T01:02:22.482Z,988.04
2019-05-05T01:03:24.216Z,988.11
2019-05-05T01:04:22.307Z,988.07
2019-05-05T01:05:22.218Z,988.08
2019-05-05T01:06:22.131Z,988.07
2019-05-05T01:07:22.045Z,988.11
2019-05-05T01:08:21.957Z,988.10
2019-05-05T01:09:21.874Z,988.10
2019-05-05T01:10:21.783Z,988.09
2019-05-05T01:11:21.700Z,988.11
2019-05-05T01:12:21.608Z,988.15
2019-05-05T01:13:21.521Z,988.17
2019-05-05T01:14:21.435Z,988.18
2019-05-05T01:15:21.347Z,988.22
2019-05-05T01:16:21.261Z,988.27
2019-05-05T01:17:21.174Z,988.33
2019-05-05T01:18:21.086Z,988.33
2019-05-05T01:19:21.000Z,988.31
2019-05-05T01:20:20.911Z,988.35
2019-05-05T01:21:20.825Z,988.34
2019-05-05T01:22:20.736Z,988.31
2019-05-05T01:23:20.650Z,988.35
2019-05-05T01:24:20.566Z,988.35
2019-05-05T01:25:20.474Z,988.34
2019-05-05T01:26:20.388Z,988.40
2019-05-05T01:27:20.302Z,988.41
2019-05-05T01:28:20.264Z,988.39
2019-05-05T01:29:20.126Z,988.46
2019-05-05T01:30:20.039Z,988.50
2019-05-05T01:31:19.955Z,988.50
2019-05-05T01:32:32.666Z,988.55
2019-05-05T01:33:19.775Z,988.56
2019-05-05T01:34:19.689Z,988.59
2019-05-05T01:35:19.603Z,988.60
2019-05-05T01:36:19.515Z,988.59
2019-05-05T01:37:19.427Z,988.62
2019-05-05T01:38:19.340Z,988.63
2019-05-05T01:39:19.252Z,988.63
2019-05-05T01:40:19.166Z,988.66
2019-05-05T01:41:19.079Z,988.64
2019-05-05T01:42:18.991Z,988.68
2019-05-05T01:43:18.907Z,988.71
2019-05-05T01:44:18.817Z,988.75
2019-05-05T01:45:18.729Z,988.75
2019-05-05T01:46:18.645Z,988.74
2019-05-05T01:47:18.555Z,988.74
2019-05-05T01:48:18.468Z,988.76
2019-05-05T01:49:18.379Z,988.76
2019-05-05T01:50:21.214Z,988.76
2019-05-05T01:51:18.206Z,988.82
2019-05-05T01:52:18.119Z,988.79
2019-05-05T01:53:18.032Z,988.75
2019-05-05T01:54:17.944Z,988.76
2019-05-05T01:55:17.857Z,988.75
2019-05-05T01:56:17.821Z,988.77
2019-05-05T01:57:17.685Z,988.71
2019-05-05T01:58:17.596Z,988.75
2019-05-05T01:59:17.510Z,988.76
2019-05-05T02:00:17.426Z,988.82
2019-05-05T02:01:17.383Z,988.79
2019-05-05T02:02:17.245Z,988.80
2019-05-05T02:03:17.158Z,988.81
2019-05-05T02:04:17.072Z,988.81
2019-05-05T02:05:16.983Z,988.81
2019-05-05T02:06:16.895Z,988.80
2019-05-05T02:07:16.809Z,988.88
2019-05-05T02:08:16.723Z,988.86
2019-05-05T02:09:16.634Z,988.85
2019-05-05T02:10:16.548Z,988.83
2019-05-05T02:11:16.460Z,988.88
2019-05-05T02:12:16.372Z,988.87
2019-05-05T02:13:16.285Z,988.87
2019-05-05T02:14:16.197Z,988.90
2019-05-05T02:15:16.109Z,988.89
2019-05-05T02:16:16.023Z,988.89
2019-05-05T02:17:15.934Z,988.91
2019-05-05T02:18:15.848Z,988.89
2019-05-05T02:19:15.761Z,988.87
2019-05-05T02:20:28.425Z,988.90
2019-05-05T02:21:15.584Z,988.93
2019-05-05T02:22:15.499Z,988.89
2019-05-05T02:23:15.411Z,988.93
2019-05-05T02:24:15.326Z,988.99
2019-05-05T02:25:15.236Z,988.92
2019-05-05T02:26:15.446Z,988.94
2019-05-05T02:27:15.060Z,988.88
2019-05-05T02:28:15.148Z,988.93
2019-05-05T02:29:14.887Z,988.95
2019-05-05T02:30:16.185Z,988.93
2019-05-05T02:31:16.684Z,988.94
2019-05-05T02:32:15.771Z,988.96
2019-05-05T02:33:15.706Z,988.96
2019-05-05T02:34:16.503Z,989.03
2019-05-05T02:35:16.341Z,988.97
2019-05-05T02:36:15.950Z,988.98
2019-05-05T02:37:16.017Z,988.97
2019-05-05T02:38:15.692Z,988.96
2019-05-05T02:39:16.047Z,988.97
2019-05-05T02:40:15.923Z,989.04
2019-05-05T02:41:15.440Z,989.02
2019-05-05T02:42:14.692Z,989.06
2019-05-05T02:43:15.073Z,989.06
2019-05-05T02:44:15.429Z,989.05
2019-05-05T02:45:15.568Z,989.04
2019-05-05T02:46:14.411Z,989.07
2019-05-05T02:47:15.502Z,989.06
2019-05-05T02:48:15.302Z,989.04
2019-05-05T02:49:15.139Z,989.08
2019-05-05T02:50:15.586Z,989.09
2019-05-05T02:51:15.182Z,989.08
2019-05-05T02:52:15.053Z,989.14
2019-05-05T02:53:14.291Z,989.17
2019-05-05T02:54:13.684Z,989.18
2019-05-05T02:55:14.580Z,989.19
2019-05-05T02:56:14.530Z,989.23
2019-05-05T02:57:13.497Z,989.22
2019-05-05T02:58:13.992Z,989.18
2019-05-05T02:59:12.271Z,989.21
2019-05-05T03:00:13.499Z,989.27
2019-05-05T03:01:13.997Z,989.25
2019-05-05T03:02:12.009Z,989.31
2019-05-05T03:03:13.475Z,989.36
2019-05-05T03:04:13.950Z,989.34
2019-05-05T03:05:11.748Z,989.39
2019-05-05T03:06:11.665Z,989.37
2019-05-05T03:07:13.658Z,989.42
2019-05-05T03:08:11.490Z,989.42
2019-05-05T03:09:11.400Z,989.39
2019-05-05T03:10:11.316Z,989.41
2019-05-05T03:11:11.227Z,989.39
2019-05-05T03:12:11.276Z,989.39
2019-05-05T03:13:11.054Z,989.43
2019-05-05T03:14:10.966Z,989.44
2019-05-05T03:15:10.879Z,989.44
2019-05-05T03:16:10.795Z,989.53
2019-05-05T03:17:10.704Z,989.51
2019-05-05T03:18:10.620Z,989.53
2019-05-05T03:19:10.533Z,989.54
2019-05-05T03:20:10.495Z,989.57
2019-05-05T03:21:10.357Z,989.56
2019-05-05T03:22:10.272Z,989.58
2019-05-05T03:23:10.185Z,989.59
2019-05-05T03:24:10.099Z,989.60
2019-05-05T03:25:10.111Z,989.65
2019-05-05T03:26:09.925Z,989.66
2019-05-05T03:27:09.839Z,989.71
2019-05-05T03:28:09.753Z,989.69
2019-05-05T03:29:09.664Z,989.69
2019-05-05T03:30:09.635Z,989.70
2019-05-05T03:31:09.495Z,989.70
2019-05-05T03:32:11.723Z,989.75
2019-05-05T03:33:09.322Z,989.74
2019-05-05T03:34:09.234Z,989.75
2019-05-05T03:35:09.147Z,989.74
2019-05-05T03:36:09.161Z,989.76
2019-05-05T03:37:08.974Z,989.78
2019-05-05T03:38:08.887Z,989.80
2019-05-05T03:39:08.801Z,989.81
2019-05-05T03:40:08.715Z,989.85
2019-05-05T03:41:08.628Z,989.83
2019-05-05T03:42:08.542Z,989.83
2019-05-05T03:43:08.454Z,989.88
2019-05-05T03:44:08.370Z,989.85
2019-05-05T03:45:08.283Z,989.88
2019-05-05T03:46:08.199Z,989.88
2019-05-05T03:47:08.109Z,989.87
2019-05-05T03:48:08.023Z,989.86
2019-05-05T03:49:07.936Z,989.86
2019-05-05T03:50:07.850Z,989.87
2019-05-05T03:51:18.289Z,989.86
2019-05-05T03:52:07.681Z,989.83
2019-05-05T03:53:07.597Z,989.85
2019-05-05T03:54:07.506Z,989.90
2019-05-05T03:55:07.421Z,989.90
2019-05-05T03:56:07.333Z,989.85
2019-05-05T03:57:07.246Z,989.88
2019-05-05T03:58:07.160Z,989.90
2019-05-05T03:59:07.074Z,989.91
2019-05-05T04:00:06.990Z,989.91
2019-05-05T04:01:06.903Z,989.97
2019-05-05T04:02:06.818Z,989.94
2019-05-05T04:03:06.781Z,989.95
2019-05-05T04:04:06.644Z,989.93
2019-05-05T04:05:06.558Z,990.00
2019-05-05T04:06:06.477Z,989.98
2019-05-05T04:07:06.395Z,989.97
2019-05-05T04:08:06.308Z,989.98
2019-05-05T04:09:06.214Z,989.96
2019-05-05T04:10:06.128Z,989.95
2019-05-05T04:11:06.042Z,989.97
2019-05-05T04:12:05.956Z,989.97
2019-05-05T04:13:05.869Z,989.98
2019-05-05T04:14:05.782Z,989.96
2019-05-05T04:15:05.698Z,989.99
2019-05-05T04:16:05.618Z,990.03
2019-05-05T04:17:05.533Z,990.04
2019-05-05T04:18:05.440Z,990.03
2019-05-05T04:19:05.354Z,990.01
2019-05-05T04:20:05.269Z,990.02
2019-05-05T04:21:05.181Z,990.00
2019-05-05T04:22:05.097Z,989.98
2019-05-05T04:23:05.010Z,989.98
2019-05-05T04:24:04.927Z,990.00
2019-05-05T04:25:04.836Z,990.04
2019-05-05T04:26:04.751Z,990.10
2019-05-05T04:27:04.666Z,990.11
2019-05-05T04:28:04.640Z,990.11
2019-05-05T04:29:05.237Z,990.08
2019-05-05T04:30:04.408Z,990.10
2019-05-05T04:31:04.322Z,990.08
2019-05-05T04:32:04.726Z,990.06
2019-05-05T04:33:04.250Z,990.09
2019-05-05T04:34:04.274Z,990.10
2019-05-05T04:35:03.979Z,990.10
2019-05-05T04:36:03.994Z,990.13
2019-05-05T04:37:04.254Z,990.11
2019-05-05T04:38:04.774Z,990.15
2019-05-05T04:39:03.842Z,990.19
2019-05-05T04:40:04.159Z,990.23
2019-05-05T04:41:03.620Z,990.24
2019-05-05T04:42:04.750Z,990.24
2019-05-05T04:43:03.855Z,990.22
2019-05-05T04:44:04.005Z,990.22
2019-05-05T04:45:04.224Z,990.24
2019-05-05T04:46:04.570Z,990.20
2019-05-05T04:47:03.888Z,990.23
2019-05-05T04:48:04.293Z,990.25
2019-05-05T04:49:03.537Z,990.29
2019-05-05T04:50:04.301Z,990.29
2019-05-05T04:51:04.669Z,990.28
2019-05-05T04:52:04.116Z,990.31
2019-05-05T04:53:04.434Z,990.27
2019-05-05T04:54:03.785Z,990.23
2019-05-05T04:55:03.862Z,990.28
2019-05-05T04:56:04.067Z,990.28
2019-05-05T04:57:04.357Z,990.25
2019-05-05T04:58:02.001Z,990.28
2019-05-05T04:59:03.837Z,990.26
2019-05-05T05:00:01.832Z,990.30
2019-05-05T05:01:01.743Z,990.27
2019-05-05T05:02:03.878Z,990.29
2019-05-05T05:03:01.571Z,990.28
2019-05-05T05:04:03.593Z,990.26
2019-05-05T05:05:01.406Z,990.29
2019-05-05T05:06:01.317Z,990.28
2019-05-05T05:07:01.237Z,990.31
2019-05-05T05:08:01.143Z,990.27
2019-05-05T05:09:01.156Z,990.31
2019-05-05T05:10:00.972Z,990.33
2019-05-05T05:11:00.885Z,990.33
2019-05-05T05:12:00.798Z,990.35
2019-05-05T05:13:00.713Z,990.34
2019-05-05T05:14:00.725Z,990.35
2019-05-05T05:15:00.540Z,990.37
2019-05-05T05:16:00.455Z,990.34
2019-05-05T05:17:00.368Z,990.40
2019-05-05T05:18:00.282Z,990.37
2019-05-05T05:19:00.197Z,990.37
2019-05-05T05:20:00.111Z,990.33
2019-05-05T05:21:00.023Z,990.30
2019-05-05T05:22:02.205Z,990.31
2019-05-05T05:22:59.851Z,990.32
2019-05-05T05:23:59.773Z,990.30
2019-05-05T05:24:59.681Z,990.35
2019-05-05T05:25:59.993Z,990.31
2019-05-05T05:26:59.510Z,990.28
2019-05-05T05:27:59.423Z,990.28
2019-05-05T05:28:59.335Z,990.30
2019-05-05T05:29:59.251Z,990.27
2019-05-05T05:30:59.166Z,990.29
2019-05-05T05:31:59.079Z,990.29
2019-05-05T05:32:58.992Z,990.29
2019-05-05T05:33:58.907Z,990.30
2019-05-05T05:34:58.821Z,990.30
2019-05-05T05:35:58.735Z,990.34
2019-05-05T05:36:58.650Z,990.32
2019-05-05T05:37:58.564Z,990.34
2019-05-05T05:38:58.478Z,990.32
2019-05-05T05:39:58.393Z,990.33
2019-05-05T05:40:58.308Z,990.31
2019-05-05T05:41:58.221Z,990.31
2019-05-05T05:42:58.134Z,990.30
2019-05-05T05:43:58.052Z,990.29
2019-05-05T05:44:57.963Z,990.27
2019-05-05T05:45:57.877Z,990.30
2019-05-05T05:46:57.891Z,990.32
2019-05-05T05:47:57.706Z,990.33
2019-05-05T05:48:57.619Z,990.31
2019-05-05T05:49:57.532Z,990.35
2019-05-05T05:50:57.447Z,990.37
2019-05-05T05:51:57.365Z,990.36
2019-05-05T05:52:57.275Z,990.35
2019-05-05T05:53:57.191Z,990.37
2019-05-05T05:54:57.104Z,990.36
2019-05-05T05:55:57.019Z,990.38
2019-05-05T05:56:56.933Z,990.41
2019-05-05T05:57:56.859Z,990.40
2019-05-05T05:58:56.762Z,990.39
2019-05-05T05:59:56.677Z,990.41
2019-05-05T06:00:56.590Z,990.41
2019-05-05T06:02:08.979Z,990.47
2019-05-05T06:02:56.419Z,990.50
2019-05-05T06:03:56.334Z,990.48
2019-05-05T06:04:56.248Z,990.51
2019-05-05T06:05:56.163Z,990.55
2019-05-05T06:06:56.082Z,990.54
2019-05-05T06:07:55.991Z,990.51
2019-05-05T06:08:55.906Z,990.54
2019-05-05T06:09:55.820Z,990.56
2019-05-05T06:10:55.736Z,990.60
2019-05-05T06:11:55.649Z,990.57
2019-05-05T06:12:55.662Z,990.57
2019-05-05T06:13:55.477Z,990.65
2019-05-05T06:14:55.393Z,990.69
2019-05-05T06:15:55.307Z,990.74
2019-05-05T06:16:55.222Z,990.75
2019-05-05T06:17:55.136Z,990.77
2019-05-05T06:18:55.052Z,990.75
2019-05-05T06:19:54.966Z,990.75
2019-05-05T06:20:54.881Z,990.72
2019-05-05T06:21:54.795Z,990.76
2019-05-05T06:22:54.710Z,990.78
2019-05-05T06:23:54.626Z,990.76
2019-05-05T06:24:54.541Z,990.82
2019-05-05T06:25:55.092Z,990.80
2019-05-05T06:26:54.789Z,990.84
2019-05-05T06:27:54.328Z,990.85
2019-05-05T06:28:54.204Z,990.88
2019-05-05T06:29:54.392Z,990.84
2019-05-05T06:30:54.659Z,990.86
2019-05-05T06:31:53.980Z,990.80
2019-05-05T06:32:54.541Z,990.84
2019-05-05T06:33:54.318Z,990.84
2019-05-05T06:34:53.696Z,990.85
2019-05-05T06:35:53.762Z,990.88
2019-05-05T06:36:53.719Z,990.93
2019-05-05T06:37:54.386Z,990.94
2019-05-05T06:38:54.137Z,990.95
2019-05-05T06:39:54.402Z,990.95
2019-05-05T06:40:53.721Z,990.93
2019-05-05T06:41:53.900Z,990.96
2019-05-05T06:42:53.989Z,990.94
2019-05-05T06:43:54.312Z,990.92
2019-05-05T06:44:53.515Z,990.94
2019-05-05T06:45:53.538Z,991.01
2019-05-05T06:46:53.737Z,990.99
2019-05-05T06:47:53.709Z,991.02
2019-05-05T06:48:53.860Z,991.01
2019-05-05T06:49:54.192Z,991.00
2019-05-05T06:50:54.307Z,991.04
2019-05-05T06:51:54.515Z,990.99
2019-05-05T06:52:53.686Z,990.96
2019-05-05T06:53:53.880Z,990.93
2019-05-05T06:54:54.151Z,990.92
2019-05-05T06:55:54.141Z,990.93
2019-05-05T06:56:53.727Z,990.92
2019-05-05T06:57:53.766Z,990.92
2019-05-05T06:58:53.905Z,990.95
2019-05-05T06:59:51.591Z,990.95
2019-05-05T07:00:51.511Z,991.00
2019-05-05T07:01:53.462Z,990.92
2019-05-05T07:02:51.338Z,990.95
2019-05-05T07:03:51.258Z,990.94
2019-05-05T07:04:51.170Z,990.97
2019-05-05T07:05:51.086Z,990.93
2019-05-05T07:06:56.221Z,990.94
2019-05-05T07:07:50.926Z,990.92
2019-05-05T07:08:50.833Z,990.94
2019-05-05T07:09:50.750Z,990.97
2019-05-05T07:10:50.667Z,990.97
2019-05-05T07:11:50.583Z,991.03
2019-05-05T07:12:50.504Z,990.99
2019-05-05T07:13:50.413Z,991.00
2019-05-05T07:14:50.330Z,991.01
2019-05-05T07:15:50.246Z,991.01
2019-05-05T07:16:50.161Z,991.00
2019-05-05T07:17:50.076Z,991.00
2019-05-05T07:18:49.993Z,991.00
2019-05-05T07:19:49.915Z,990.97
2019-05-05T07:20:49.826Z,991.04
2019-05-05T07:21:49.740Z,990.99
2019-05-05T07:23:01.505Z,990.98
2019-05-05T07:23:49.574Z,991.04
2019-05-05T07:24:49.493Z,991.02
2019-05-05T07:25:49.406Z,990.98
2019-05-05T07:26:49.324Z,990.96
2019-05-05T07:27:49.238Z,991.02
2019-05-05T07:28:49.153Z,990.95
2019-05-05T07:29:49.070Z,991.00
2019-05-05T07:30:49.018Z,991.01
2019-05-05T07:31:48.904Z,991.04
2019-05-05T07:32:48.819Z,991.06
2019-05-05T07:33:48.735Z,991.04
2019-05-05T07:34:48.653Z,991.06
2019-05-05T07:35:58.600Z,991.07
2019-05-05T07:36:48.486Z,991.09
2019-05-05T07:37:48.403Z,991.08
2019-05-05T07:38:48.321Z,991.12
2019-05-05T07:39:48.236Z,991.05
2019-05-05T07:40:48.153Z,991.07
2019-05-05T07:41:48.069Z,991.05
2019-05-05T07:42:47.986Z,991.12
2019-05-05T07:43:47.903Z,991.11
2019-05-05T07:44:47.818Z,991.13
2019-05-05T07:45:47.734Z,991.12
2019-05-05T07:46:47.650Z,991.09
2019-05-05T07:47:47.691Z,991.07
2019-05-05T07:48:47.485Z,991.03
2019-05-05T07:49:47.402Z,991.03
2019-05-05T07:50:58.671Z,991.04
2019-05-05T07:51:47.263Z,991.03
2019-05-05T07:52:47.153Z,991.03
2019-05-05T07:53:47.070Z,991.03
2019-05-05T07:54:46.987Z,991.12
2019-05-05T07:55:46.905Z,991.09
2019-05-05T07:56:46.870Z,991.10
2019-05-05T07:57:46.738Z,991.06
2019-05-05T07:58:46.656Z,991.07
2019-05-05T07:59:46.575Z,991.04
2019-05-05T08:00:46.491Z,991.06
2019-05-05T08:01:46.858Z,991.08
2019-05-05T08:02:46.325Z,991.13
2019-05-05T08:03:46.241Z,991.12
2019-05-05T08:04:46.158Z,991.15
2019-05-05T08:05:46.076Z,991.17
2019-05-05T08:06:45.993Z,991.14
2019-05-05T08:07:45.916Z,991.15
2019-05-05T08:08:45.829Z,991.11
2019-05-05T08:09:45.747Z,991.14
2019-05-05T08:10:45.666Z,991.21
2019-05-05T08:11:45.582Z,991.18
2019-05-05T08:12:45.501Z,991.10
2019-05-05T08:13:45.419Z,991.16
2019-05-05T08:14:45.336Z,991.12
2019-05-05T08:15:56.787Z,991.17
2019-05-05T08:16:45.176Z,991.15
2019-05-05T08:17:45.192Z,991.19
2019-05-05T08:18:45.011Z,991.17
2019-05-05T08:19:44.929Z,991.10
2019-05-05T08:20:44.846Z,991.11
2019-05-05T08:21:44.764Z,991.16
2019-05-05T08:22:44.684Z,991.11
2019-05-05T08:23:44.856Z,991.08
2019-05-05T08:24:44.519Z,991.07
2019-05-05T08:25:45.432Z,991.03
2019-05-05T08:26:44.440Z,991.10
2019-05-05T08:27:44.767Z,991.11
2019-05-05T08:28:44.198Z,991.08
2019-05-05T08:29:44.113Z,991.10
2019-05-05T08:30:44.204Z,991.16
2019-05-05T08:31:44.329Z,991.10
2019-05-05T08:32:43.868Z,991.10
2019-05-05T08:33:44.243Z,991.06
2019-05-05T08:34:56.859Z,991.04
2019-05-05T08:35:44.900Z,991.08
2019-05-05T08:36:44.639Z,991.10
2019-05-05T08:37:43.682Z,991.13
2019-05-05T08:38:44.095Z,991.11
2019-05-05T08:39:44.689Z,991.14
2019-05-05T08:40:43.879Z,991.13
2019-05-05T08:41:45.374Z,991.17
2019-05-05T08:42:44.531Z,991.17
2019-05-05T08:43:44.100Z,991.18
2019-05-05T08:44:44.700Z,991.18
2019-05-05T08:45:44.416Z,991.20
2019-05-05T08:46:44.569Z,991.26
2019-05-05T08:47:43.586Z,991.20
2019-05-05T08:48:44.593Z,991.18
2019-05-05T08:49:44.272Z,991.21
2019-05-05T08:50:43.911Z,991.24
2019-05-05T08:51:44.198Z,991.26
2019-05-05T08:52:44.318Z,991.23
2019-05-05T08:53:47.349Z,991.28
2019-05-05T08:54:42.062Z,991.24
2019-05-05T08:55:44.098Z,991.26
2019-05-05T08:56:41.898Z,991.29
2019-05-05T08:57:41.815Z,991.32
2019-05-05T08:58:43.648Z,991.35
2019-05-05T08:59:43.808Z,991.30
2019-05-05T09:00:41.567Z,991.33
2019-05-05T09:01:41.487Z,991.33
2019-05-05T09:02:43.630Z,991.30
2019-05-05T09:03:41.322Z,991.34
2019-05-05T09:04:41.240Z,991.37
2019-05-05T09:05:41.161Z,991.39
2019-05-05T09:06:41.091Z,991.43
2019-05-05T09:07:40.994Z,991.46
2019-05-05T09:08:40.911Z,991.55
2019-05-05T09:09:40.830Z,991.53
2019-05-05T09:10:40.748Z,991.51
2019-05-05T09:11:40.667Z,991.46
2019-05-05T09:12:40.583Z,991.50
2019-05-05T09:13:40.505Z,991.54
2019-05-05T09:14:40.423Z,991.56
2019-05-05T09:15:40.340Z,991.55
2019-05-05T09:16:40.257Z,991.51
2019-05-05T09:17:40.176Z,991.52
2019-05-05T09:18:40.094Z,991.52
2019-05-05T09:19:40.012Z,991.54
2019-05-05T09:20:39.932Z,991.49
2019-05-05T09:21:39.849Z,991.56
2019-05-05T09:22:39.769Z,991.55
2019-05-05T09:23:39.687Z,991.53
2019-05-05T09:24:39.605Z,991.55
2019-05-05T09:25:39.523Z,991.53
2019-05-05T09:26:39.443Z,991.49
2019-05-05T09:27:39.365Z,991.49
2019-05-05T09:28:39.281Z,991.48
2019-05-05T09:29:39.200Z,991.50
2019-05-05T09:30:39.118Z,991.47
2019-05-05T09:31:39.039Z,991.53
2019-05-05T09:32:38.958Z,991.46
2019-05-05T09:33:38.878Z,991.48
2019-05-05T09:34:38.796Z,991.43
2019-05-05T09:35:38.716Z,991.46
2019-05-05T09:36:38.636Z,991.42
2019-05-05T09:37:38.556Z,991.47
2019-05-05T09:38:38.481Z,991.46
2019-05-05T09:39:38.396Z,991.40
2019-05-05T09:40:38.315Z,991.43
2019-05-05T09:41:38.237Z,991.41
2019-05-05T09:42:38.155Z,991.47
2019-05-05T09:43:38.076Z,991.38
2019-05-05T09:44:37.995Z,991.40
2019-05-05T09:45:37.916Z,991.47
2019-05-05T09:46:39.666Z,991.40
2019-05-05T09:47:37.755Z,991.48
2019-05-05T09:48:37.678Z,991.44
2019-05-05T09:49:37.598Z,991.43
2019-05-05T09:50:37.516Z,991.39
2019-05-05T09:51:37.436Z,991.37
2019-05-05T09:52:37.356Z,991.44
2019-05-05T09:53:37.277Z,991.44
2019-05-05T09:54:37.198Z,991.44
2019-05-05T09:55:37.118Z,991.41
2019-05-05T09:56:37.039Z,991.46
2019-05-05T09:57:36.959Z,991.43
2019-05-05T09:58:36.881Z,991.45
2019-05-05T09:59:36.802Z,991.47
2019-05-05T10:00:36.721Z,991.49
2019-05-05T10:01:36.642Z,991.46
2019-05-05T10:02:36.563Z,991.48
2019-05-05T10:03:36.483Z,991.47
2019-05-05T10:04:36.403Z,991.49
2019-05-05T10:05:36.321Z,991.52
2019-05-05T10:06:36.244Z,991.51
2019-05-05T10:07:36.163Z,991.49
2019-05-05T10:08:36.083Z,991.50
2019-05-05T10:09:36.003Z,991.47
2019-05-05T10:10:35.923Z,991.54
2019-05-05T10:11:35.845Z,991.54
2019-05-05T10:12:35.763Z,991.52
2019-05-05T10:13:35.682Z,991.49
2019-05-05T10:14:35.602Z,991.53
2019-05-05T10:15:35.525Z,991.52
2019-05-05T10:16:35.444Z,991.52
2019-05-05T10:17:35.362Z,991.50
2019-05-05T10:18:36.007Z,991.54
2019-05-05T10:19:35.202Z,991.56
2019-05-05T10:20:35.122Z,991.59
2019-05-05T10:21:35.042Z,991.54
2019-05-05T10:22:34.962Z,991.54
2019-05-05T10:23:34.883Z,991.53
2019-05-05T10:24:34.801Z,991.58
2019-05-05T10:25:34.722Z,991.60
2019-05-05T10:26:34.641Z,991.59
2019-05-05T10:27:44.618Z,991.61
2019-05-05T10:28:34.487Z,991.60
2019-05-05T10:29:34.401Z,991.58
2019-05-05T10:30:34.328Z,991.55
2019-05-05T10:31:34.656Z,991.63
2019-05-05T10:32:34.163Z,991.63
2019-05-05T10:33:36.339Z,991.62
2019-05-05T10:34:34.006Z,991.61
2019-05-05T10:35:34.574Z,991.60
2019-05-05T10:36:33.843Z,991.59
2019-05-05T10:37:34.710Z,991.62
2019-05-05T10:38:34.211Z,991.62
2019-05-05T10:39:33.605Z,991.65
2019-05-05T10:40:33.980Z,991.65
2019-05-05T10:41:33.850Z,991.64
2019-05-05T10:42:33.677Z,991.62
2019-05-05T10:43:34.327Z,991.64
2019-05-05T10:44:34.087Z,991.60
2019-05-05T10:45:33.127Z,991.59
2019-05-05T10:46:34.127Z,991.60
2019-05-05T10:47:33.505Z,991.57
2019-05-05T10:48:34.011Z,991.61
2019-05-05T10:49:33.668Z,991.57
2019-05-05T10:50:34.110Z,991.58
2019-05-05T10:51:34.587Z,991.60
2019-05-05T10:52:33.760Z,991.58
2019-05-05T10:53:32.487Z,991.58
2019-05-05T10:54:43.250Z,991.58
2019-05-05T10:55:34.387Z,991.57
2019-05-05T10:56:34.438Z,991.59
2019-05-05T10:57:34.045Z,991.51
2019-05-05T10:58:33.573Z,991.54
2019-05-05T10:59:34.178Z,991.56
2019-05-05T11:00:33.767Z,991.53
2019-05-05T11:01:31.852Z,991.55
2019-05-05T11:02:31.774Z,991.54
2019-05-05T11:03:31.695Z,991.53
2019-05-05T11:04:33.498Z,991.52
2019-05-05T11:05:31.537Z,991.58
2019-05-05T11:06:31.457Z,991.57
2019-05-05T11:07:31.379Z,991.60
2019-05-05T11:08:31.305Z,991.58
2019-05-05T11:09:31.222Z,991.61
2019-05-05T11:10:31.143Z,991.61
2019-05-05T11:11:31.064Z,991.62
2019-05-05T11:12:30.989Z,991.57
2019-05-05T11:13:30.907Z,991.59
2019-05-05T11:14:30.833Z,991.58
2019-05-05T11:15:30.750Z,991.57
2019-05-05T11:16:30.674Z,991.59
2019-05-05T11:17:30.595Z,991.62
2019-05-05T11:18:30.531Z,991.61
2019-05-05T11:19:30.440Z,991.61
2019-05-05T11:20:30.359Z,991.62
2019-05-05T11:21:30.282Z,991.59
2019-05-05T11:22:30.202Z,991.60
2019-05-05T11:23:30.126Z,991.63
2019-05-05T11:24:30.044Z,991.65
2019-05-05T11:25:29.968Z,991.67
2019-05-05T11:26:29.891Z,991.60
2019-05-05T11:27:29.812Z,991.64
2019-05-05T11:28:29.733Z,991.59
2019-05-05T11:29:29.659Z,991.62
2019-05-05T11:30:29.579Z,991.59
2019-05-05T11:31:29.502Z,991.62
2019-05-05T11:32:29.431Z,991.53
2019-05-05T11:33:29.346Z,991.23
2019-05-05T11:34:29.270Z,991.01
2019-05-05T11:35:29.194Z,991.43
2019-05-05T11:36:29.117Z,991.52
2019-05-05T11:37:29.042Z,991.50
2019-05-05T11:38:28.966Z,991.45
2019-05-05T11:39:28.891Z,991.50
2019-05-05T11:40:28.814Z,991.51
2019-05-05T11:41:28.740Z,991.45
2019-05-05T11:42:28.665Z,991.50
2019-05-05T11:43:28.593Z,991.49
2019-05-05T11:44:28.512Z,991.47
2019-05-05T11:45:28.441Z,991.51
2019-05-05T11:46:28.364Z,991.50
2019-05-05T11:47:28.285Z,991.56
2019-05-05T11:48:28.208Z,991.52
2019-05-05T11:49:28.133Z,991.57
2019-05-05T11:50:28.058Z,991.56
2019-05-05T11:51:27.981Z,991.63
2019-05-05T11:52:27.902Z,991.64
2019-05-05T11:54:27.748Z,991.63
2019-05-05T11:55:27.671Z,991.57
2019-05-05T11:56:27.596Z,991.59
2019-05-05T11:58:35.017Z,991.58
2019-05-05T11:59:34.944Z,991.55
2019-05-05T12:00:34.863Z,991.53
2019-05-05T12:01:34.787Z,991.55
2019-05-05T12:02:34.711Z,991.51
2019-05-05T12:03:37.710Z,991.54
2019-05-05T12:04:34.557Z,991.52
2019-05-05T12:05:34.480Z,991.47
2019-05-05T12:06:34.404Z,991.46
2019-05-05T12:07:34.327Z,991.50
2019-05-05T12:08:34.699Z,991.48
2019-05-05T12:09:34.172Z,991.50
2019-05-05T12:10:34.510Z,991.52
2019-05-05T12:11:34.547Z,991.71
2019-05-05T12:12:33.944Z,991.86
2019-05-05T12:13:33.869Z,991.60
2019-05-05T12:14:33.791Z,991.63
2019-05-05T12:16:34.670Z,991.64
2019-05-05T12:17:33.561Z,991.61
2019-05-05T12:18:34.279Z,991.54
2019-05-05T12:19:33.670Z,991.57
2019-05-05T12:20:33.755Z,991.51
2019-05-05T12:21:33.824Z,991.60
2019-05-05T12:22:34.092Z,991.49
2019-05-05T12:23:33.983Z,991.56
2019-05-05T12:24:33.935Z,991.55
2019-05-05T12:25:32.959Z,991.55
2019-05-05T12:26:34.757Z,991.58
2019-05-05T12:27:33.893Z,991.55
2019-05-05T12:28:34.670Z,991.55
2019-05-05T12:29:33.706Z,991.55
2019-05-05T12:30:33.887Z,991.58